x

Port Orford - 15 Nm West Of Port Orford, Or (46015) Wave Buoy

2:50am - Fri 28th Nov 2014 All times are PST. -8 hours from GMT.

  • Sig Wave height 14.8ft
  • Swell Direction
  • Peak Period 14s
  • Average Period 7s
  • Wind
    36mph, 43mph gusts
  • Sea Temp 57°f
  • Air Temp 58°f
  • Sea Pressure 1007.8mb
  • Port Orford - 15 Nm West Of Port Orford, Or
  • Port Orford - 15 Nm West Of Port Orford, Or

More Historic Weather Station data

Upgrade to MSW Pro to gain access to the past 30 days of data for over 8000 Wavebouys and Weather Stations around the globe.

Join Pro

Comparision Forecast

View Surf forecast
   
Fri 11/28 2:50am 15ft 14s 7s 36 43 mph 1007.8mb 57f 58f
1:50am 12.5ft 14s 7s 31 38 mph 1008.8mb 57f 58f
12:50am 15ft 14s 8s 27 31 mph 1010.2mb 57f 57f
Thu 11/27 11:50pm 14ft 14s 7s 31 38 mph 1010.9mb 57f 57f
10:50pm 14ft 14s 7s 31 38 mph 1011.1mb 57f 58f
9:50pm 13.5ft 14s 7s 29 36 mph 1011.6mb 57f 57f
8:50pm 14ft 15s 7s 36 43 mph 1011.5mb 57f 57f
7:50pm 14ft 15s 7s 29 36 mph 1012.1mb 57f 58f
6:50pm 13ft 15s 7s 31 38 mph 1012.1mb 58f 58f
5:50pm 12.5ft 15s 7s 31 40 mph 1012.5mb 58f 58f
4:50pm 11ft 15s 7s 27 34 mph 1012.6mb 58f 58f
3:50pm 10.5ft 15s 7s 27 31 mph 1012.9mb 58f 58f
2:50pm 10.5ft 15s 7s 18 25 mph 1013.9mb 58f 58f
1:50pm 11ft 15s 7s 13 18 mph 1014.2mb 57f 58f
12:50pm 10ft 16s 7s 18 20 mph 1014.9mb 57f 58f
11:50am 10ft 7s 7s 13 16 mph 1015.8mb 57f 58f
10:50am 10.5ft 9s 6s 22 27 mph 1016.2mb 57f 58f
9:50am 10ft 11s 6s 22 29 mph 1016.5mb 57f 57f
8:50am 10.5ft 8s 6s 29 34 mph 1015.1mb 57f 57f
7:50am 11ft 11s 6s 27 31 mph 1015.4mb 57f 58f
6:50am 10.5ft 10s 6s 31 36 mph 1014.8mb 57f 58f
5:50am 11ft 9s 6s 34 43 mph 1015.1mb 57f 60f
4:50am 11ft 10s 6s 27 31 mph 1015.6mb 57f 59f
3:50am  -   -   -  27 31 mph 1016.3mb 57f 59f
2:50am 9.5ft 9s 6s 27 34 mph 1016.3mb 57f 59f
1:50am  -   -   -  27 31 mph 1017mb 57f 59f
12:50am 10ft 8s 6s 27 34 mph 1017mb 57f 59f
Wed 11/26 11:50pm 10ft 10s 6s 31 36 mph 1017.5mb 57f 59f
10:50pm 9ft 9s 6s 27 34 mph 1017.9mb 57f 59f
9:50pm 9.5ft 9s 6s 29 36 mph 1016.8mb 57f 59f
8:50pm 9ft 10s 6s 25 27 mph 1018.6mb 57f 59f
7:50pm 7.5ft 10s 6s 25 31 mph 1016.7mb 57f 59f
6:50pm 8ft 12s 6s 25 27 mph 1017.8mb 57f 59f
5:50pm 7ft 11s 6s 22 27 mph 1018.1mb 57f 60f
4:50pm 7ft 12s 5s 25 29 mph 1018.1mb 57f 60f
3:50pm 7ft 11s 5s 22 27 mph 1018.4mb 57f 60f
2:50pm 6ft 11s 5s 22 27 mph 1018.4mb 57f 59f
1:50pm 6.5ft 11s 5s 22 27 mph 1019mb 57f 59f
12:50pm 6ft 5s 5s 25 31 mph 1019.3mb 57f 58f
11:50am 5.5ft 12s 5s 25 29 mph 1020.4mb 57f 58f
10:50am 5.5ft 12s 5s 27 31 mph 1020.6mb 57f 58f
9:50am 5.5ft 12s 6s 25 29 mph 1020.8mb 57f 58f
8:50am 5ft 12s 6s 22 27 mph 1021.2mb 57f 58f
7:50am 5ft 12s 7s 18 20 mph 1021.7mb 57f 58f
6:50am 5.5ft 11s 7s 13 18 mph 1022.6mb 57f 58f
5:50am 5.5ft 12s 7s 11 13 mph 1022.6mb 57f 56f
4:50am 7ft 11s 7s 13 16 mph 1023.8mb 57f 55f
3:50am 6ft 11s 7s 13 16 mph 1024.2mb 57f 54f
2:50am 6ft 12s 8s 13 16 mph 1024.9mb 57f 53f
1:50am 6.5ft 11s 8s 9 13 mph 1025.7mb 57f 54f
12:50am 6.5ft 11s 8s 9 11 mph 1026.2mb 57f 54f
Tue 11/25 11:50pm 5.5ft 12s 8s 7 9 mph 1026.8mb 57f 54f
10:50pm 5.5ft 12s 8s 11 13 mph 1027mb 57f 55f
9:50pm 5.5ft 11s 8s 9
mph
1027.2mb 57f 55f
8:50pm 6ft 12s 9s 9 11 mph 1027.2mb 57f 55f
7:50pm 6.5ft 12s 9s 9 11 mph 1027.5mb 57f 54f
6:50pm 6ft 12s 9s 7 9 mph 1028.3mb 57f 54f
5:50pm 6ft 12s 8s 7 9 mph 1028.6mb 57f 55f
4:50pm 6ft 11s 8s 9 11 mph 1028.8mb 57f 56f
3:50pm 7.5ft 13s 8s 9 13 mph 1028.7mb 57f 56f
2:50pm 7.5ft 13s 8s 11 13 mph 1028.8mb 57f 56f
1:50pm 7ft 14s 8s 11 16 mph 1029.4mb 57f 57f
12:50pm 7.5ft 12s 8s 13 16 mph 1029.8mb 57f 57f
11:50am 8ft 12s 8s 13 16 mph 1030.5mb 57f 57f
10:50am 8ft 11s 8s 16 18 mph 1031mb 57f 57f
9:50am 8ft 13s 8s 16 20 mph 1030.7mb 57f 57f
8:50am 7ft 12s 8s 16 20 mph 1030.5mb 57f 57f
7:50am 7ft 12s 7s 18 22 mph 1030.4mb 57f 57f
6:50am 7ft 13s 7s 18 22 mph 1030.2mb 57f 57f
5:50am 8ft 12s 8s 18 22 mph 1030.1mb 57f 57f
4:50am 8ft 12s 8s 18 20 mph 1029.9mb 57f 56f
3:50am 8ft 13s 8s 18 22 mph 1029.8mb 57f 56f
2:50am 8.5ft 14s 8s 18 20 mph 1030.1mb 57f 56f
1:50am 9ft 14s 8s 16 20 mph 1030mb 57f 57f
12:50am 8ft 13s 7s 18 22 mph 1029.6mb 57f 57f
Mon 11/24 11:50pm 9ft 15s 7s 20 22 mph 1029.7mb 57f 57f
10:50pm 8ft 12s 7s 20 25 mph 1029.5mb 57f 57f
9:50pm 9ft 14s 8s 20 22 mph 1029.5mb 57f 57f
8:50pm 8.5ft 14s 7s 20 25 mph 1029.2mb 57f 56f
7:50pm 8.5ft 12s 7s 20 25 mph 1029mb 57f 57f
6:50pm 10ft 15s 8s 22 27 mph 1028.3mb 57f 57f
5:50pm 10ft 14s 7s 25 29 mph 1027.8mb 57f 57f
4:50pm 10.5ft 14s 8s 22 27 mph 1027.6mb 57f 57f
3:50pm 10ft 14s 7s 22 29 mph 1027.6mb 57f 57f
2:50pm 10.5ft 14s 7s 25 29 mph 1027.1mb 57f 57f
1:50pm  -   -   -  25 29 mph 1027.1mb 57f 56f
12:50pm 9ft 14s 7s 25 29 mph 1027.3mb 57f 56f
11:50am 9ft 13s 7s 22 27 mph 1028.1mb 57f 56f